sensor_id;sensor_type;location;lat;lon;timestamp;pressure;altitude;pressure_sealevel;temperature;humidity
6150;BME280;3106;42.670;23.318;2023-02-03T00:00:05;94611.91;;;3.15;91.74
6150;BME280;3106;42.670;23.318;2023-02-03T00:02:32;94617.28;;;3.10;91.43
6150;BME280;3106;42.670;23.318;2023-02-03T00:04:58;94623.28;;;3.15;92.49
6150;BME280;3106;42.670;23.318;2023-02-03T00:07:25;94614.66;;;3.10;93.82
6150;BME280;3106;42.670;23.318;2023-02-03T00:09:54;94617.38;;;3.05;93.72
6150;BME280;3106;42.670;23.318;2023-02-03T00:12:21;94619.13;;;2.96;94.69
6150;BME280;3106;42.670;23.318;2023-02-03T00:14:49;94589.16;;;2.74;95.70
6150;BME280;3106;42.670;23.318;2023-02-03T00:17:16;94611.84;;;2.75;95.57
6150;BME280;3106;42.670;23.318;2023-02-03T00:19:43;94605.75;;;2.74;96.14
6150;BME280;3106;42.670;23.318;2023-02-03T00:22:10;94628.97;;;2.91;95.77
6150;BME280;3106;42.670;23.318;2023-02-03T00:24:37;94588.13;;;2.56;96.46
6150;BME280;3106;42.670;23.318;2023-02-03T00:27:05;94609.47;;;2.73;97.61
6150;BME280;3106;42.670;23.318;2023-02-03T00:29:31;94608.00;;;2.67;97.92
6150;BME280;3106;42.670;23.318;2023-02-03T00:31:59;94625.38;;;2.68;99.52
6150;BME280;3106;42.670;23.318;2023-02-03T00:34:29;94610.56;;;2.54;99.55
6150;BME280;3106;42.670;23.318;2023-02-03T00:36:56;94609.94;;;2.43;100.00
6150;BME280;3106;42.670;23.318;2023-02-03T00:39:23;94623.28;;;2.52;100.00
6150;BME280;3106;42.670;23.318;2023-02-03T00:41:50;94650.72;;;2.69;100.00
6150;BME280;3106;42.670;23.318;2023-02-03T00:44:16;94615.22;;;2.43;100.00
6150;BME280;3106;42.670;23.318;2023-02-03T00:46:43;94601.38;;;2.33;100.00
6150;BME280;3106;42.670;23.318;2023-02-03T00:49:11;94656.34;;;2.63;100.00
6150;BME280;3106;42.670;23.318;2023-02-03T00:51:38;94648.72;;;2.61;100.00
6150;BME280;3106;42.670;23.318;2023-02-03T00:54:05;94650.38;;;2.57;100.00
6150;BME280;3106;42.670;23.318;2023-02-03T00:56:32;94652.78;;;2.54;100.00
6150;BME280;3106;42.670;23.318;2023-02-03T00:58:58;94656.50;;;2.53;100.00
6150;BME280;3106;42.670;23.318;2023-02-03T01:01:25;94657.28;;;2.53;100.00
6150;BME280;3106;42.670;23.318;2023-02-03T01:03:53;94659.38;;;2.56;100.00
6150;BME280;3106;42.670;23.318;2023-02-03T01:06:22;94633.53;;;2.35;100.00
6150;BME280;3106;42.670;23.318;2023-02-03T01:08:49;94678.53;;;2.62;100.00
6150;BME280;3106;42.670;23.318;2023-02-03T01:11:18;94660.78;;;2.49;100.00
6150;BME280;3106;42.670;23.318;2023-02-03T01:13:46;94646.72;;;2.35;100.00
6150;BME280;3106;42.670;23.318;2023-02-03T01:16:15;94673.09;;;2.53;100.00
6150;BME280;3106;42.670;23.318;2023-02-03T01:18:43;94666.63;;;2.46;100.00
6150;BME280;3106;42.670;23.318;2023-02-03T01:21:12;94644.66;;;2.32;100.00
6150;BME280;3106;42.670;23.318;2023-02-03T01:23:41;94665.56;;;2.47;100.00
6150;BME280;3106;42.670;23.318;2023-02-03T01:26:09;94644.09;;;2.35;100.00
6150;BME280;3106;42.670;23.318;2023-02-03T01:28:36;94663.50;;;2.44;100.00
6150;BME280;3106;42.670;23.318;2023-02-03T01:31:10;94650.56;;;2.42;100.00
6150;BME280;3106;42.670;23.318;2023-02-03T01:33:38;94651.72;;;2.36;100.00
6150;BME280;3106;42.670;23.318;2023-02-03T01:36:06;94649.94;;;2.32;100.00
6150;BME280;3106;42.670;23.318;2023-02-03T01:38:33;94636.13;;;2.21;100.00
6150;BME280;3106;42.670;23.318;2023-02-03T01:41:02;94646.38;;;2.23;100.00
6150;BME280;3106;42.670;23.318;2023-02-03T01:43:30;94679.00;;;2.27;100.00
6150;BME280;3106;42.670;23.318;2023-02-03T01:45:58;94667.97;;;2.25;100.00
6150;BME280;3106;42.670;23.318;2023-02-03T01:48:35;94644.84;;;1.98;100.00
6150;BME280;3106;42.670;23.318;2023-02-03T01:51:03;94632.31;;;1.90;100.00
6150;BME280;3106;42.670;23.318;2023-02-03T01:53:31;94687.56;;;2.19;100.00
6150;BME280;3106;42.670;23.318;2023-02-03T01:55:59;94662.75;;;2.01;100.00
6150;BME280;3106;42.670;23.318;2023-02-03T01:58:30;94691.44;;;2.26;100.00
6150;BME280;3106;42.670;23.318;2023-02-03T02:00:58;94682.94;;;2.29;100.00
6150;BME280;3106;42.670;23.318;2023-02-03T02:03:30;94685.84;;;2.28;99.80
6150;BME280;3106;42.670;23.318;2023-02-03T02:06:01;94677.81;;;2.19;100.00
6150;BME280;3106;42.670;23.318;2023-02-03T02:08:29;94684.84;;;2.24;100.00
6150;BME280;3106;42.670;23.318;2023-02-03T02:10:57;94663.25;;;2.03;100.00
6150;BME280;3106;42.670;23.318;2023-02-03T02:13:25;94692.69;;;2.29;100.00
6150;BME280;3106;42.670;23.318;2023-02-03T02:15:59;94694.25;;;2.30;100.00
6150;BME280;3106;42.670;23.318;2023-02-03T02:18:37;94698.47;;;2.31;98.96
6150;BME280;3106;42.670;23.318;2023-02-03T02:24:55;94705.97;;;2.24;99.15
6150;BME280;3106;42.670;23.318;2023-02-03T02:27:44;94707.75;;;2.28;99.46
6150;BME280;3106;42.670;23.318;2023-02-03T02:33:40;94707.38;;;2.35;98.28
6150;BME280;3106;42.670;23.318;2023-02-03T02:37:00;94700.63;;;2.29;98.29
6150;BME280;3106;42.670;23.318;2023-02-03T02:39:39;94677.22;;;2.04;98.45
6150;BME280;3106;42.670;23.318;2023-02-03T02:42:14;94703.63;;;2.22;99.46
6150;BME280;3106;42.670;23.318;2023-02-03T02:44:47;94674.22;;;2.10;99.22
6150;BME280;3106;42.670;23.318;2023-02-03T02:47:17;94683.44;;;2.13;98.90
6150;BME280;3106;42.670;23.318;2023-02-03T02:49:50;94713.31;;;2.27;97.87
6150;BME280;3106;42.670;23.318;2023-02-03T02:52:20;94655.97;;;1.95;97.35
6150;BME280;3106;42.670;23.318;2023-02-03T02:54:52;94721.44;;;2.30;97.12
6150;BME280;3106;42.670;23.318;2023-02-03T02:57:21;94716.63;;;2.14;97.79
6150;BME280;3106;42.670;23.318;2023-02-03T02:59:52;94724.91;;;2.26;97.54
6150;BME280;3106;42.670;23.318;2023-02-03T03:02:19;94706.94;;;2.09;97.53
6150;BME280;3106;42.670;23.318;2023-02-03T03:04:48;94724.72;;;2.22;97.41
6150;BME280;3106;42.670;23.318;2023-02-03T03:07:18;94717.41;;;2.14;96.51
6150;BME280;3106;42.670;23.318;2023-02-03T03:09:50;94700.09;;;2.08;95.64
6150;BME280;3106;42.670;23.318;2023-02-03T03:12:20;94695.22;;;1.97;96.16
6150;BME280;3106;42.670;23.318;2023-02-03T03:14:51;94729.19;;;2.22;95.66
6150;BME280;3106;42.670;23.318;2023-02-03T03:17:23;94732.97;;;2.16;95.81
6150;BME280;3106;42.670;23.318;2023-02-03T03:19:55;94727.69;;;2.16;95.14
6150;BME280;3106;42.670;23.318;2023-02-03T03:22:27;94697.41;;;1.90;95.05
6150;BME280;3106;42.670;23.318;2023-02-03T03:25:01;94737.44;;;2.15;94.44
6150;BME280;3106;42.670;23.318;2023-02-03T03:27:33;94721.06;;;1.95;93.75
6150;BME280;3106;42.670;23.318;2023-02-03T03:30:05;94742.00;;;2.10;93.20
6150;BME280;3106;42.670;23.318;2023-02-03T03:32:34;94740.69;;;2.07;93.46
6150;BME280;3106;42.670;23.318;2023-02-03T03:35:03;94753.94;;;2.02;93.95
6150;BME280;3106;42.670;23.318;2023-02-03T03:37:35;94743.63;;;2.06;93.67
6150;BME280;3106;42.670;23.318;2023-02-03T03:40:06;94753.69;;;2.04;92.79
6150;BME280;3106;42.670;23.318;2023-02-03T03:42:39;94714.06;;;1.85;93.54
6150;BME280;3106;42.670;23.318;2023-02-03T03:45:15;94745.78;;;1.99;93.65
6150;BME280;3106;42.670;23.318;2023-02-03T03:47:46;94695.22;;;1.73;93.39
6150;BME280;3106;42.670;23.318;2023-02-03T03:50:17;94745.53;;;2.00;93.97
6150;BME280;3106;42.670;23.318;2023-02-03T03:52:46;94747.91;;;2.02;93.72
6150;BME280;3106;42.670;23.318;2023-02-03T03:55:17;94737.69;;;1.95;94.74
6150;BME280;3106;42.670;23.318;2023-02-03T03:57:50;94736.13;;;1.94;94.18
6150;BME280;3106;42.670;23.318;2023-02-03T04:00:21;94674.53;;;1.62;94.11
6150;BME280;3106;42.670;23.318;2023-02-03T04:02:51;94700.28;;;1.70;94.45
6150;BME280;3106;42.670;23.318;2023-02-03T04:05:21;94738.50;;;1.91;94.90
6150;BME280;3106;42.670;23.318;2023-02-03T04:07:48;94745.16;;;1.88;95.27
6150;BME280;3106;42.670;23.318;2023-02-03T04:10:21;94735.03;;;1.72;94.73
6150;BME280;3106;42.670;23.318;2023-02-03T04:12:51;94743.91;;;1.81;95.13
6150;BME280;3106;42.670;23.318;2023-02-03T04:15:17;94757.81;;;1.86;94.88
6150;BME280;3106;42.670;23.318;2023-02-03T04:17:44;94752.56;;;1.81;95.77
6150;BME280;3106;42.670;23.318;2023-02-03T04:20:12;94732.16;;;1.68;95.92
6150;BME280;3106;42.670;23.318;2023-02-03T04:22:41;94762.59;;;1.84;95.13
6150;BME280;3106;42.670;23.318;2023-02-03T04:25:08;94761.28;;;1.82;95.30
6150;BME280;3106;42.670;23.318;2023-02-03T04:27:35;94747.78;;;1.60;94.63
6150;BME280;3106;42.670;23.318;2023-02-03T04:30:03;94793.91;;;1.86;95.64
6150;BME280;3106;42.670;23.318;2023-02-03T04:32:30;94789.47;;;1.81;95.78
6150;BME280;3106;42.670;23.318;2023-02-03T04:34:59;94719.84;;;1.36;95.41
6150;BME280;3106;42.670;23.318;2023-02-03T04:37:26;94780.34;;;1.74;95.77
6150;BME280;3106;42.670;23.318;2023-02-03T04:39:55;94776.19;;;1.68;95.58
6150;BME280;3106;42.670;23.318;2023-02-03T04:42:22;94801.31;;;1.84;94.93
6150;BME280;3106;42.670;23.318;2023-02-03T04:44:49;94812.66;;;1.84;95.12
6150;BME280;3106;42.670;23.318;2023-02-03T04:47:17;94792.50;;;1.70;95.39
6150;BME280;3106;42.670;23.318;2023-02-03T04:49:44;94826.00;;;1.93;95.40
6150;BME280;3106;42.670;23.318;2023-02-03T04:52:11;94815.50;;;1.88;95.30
6150;BME280;3106;42.670;23.318;2023-02-03T04:54:38;94827.53;;;1.99;95.54
6150;BME280;3106;42.670;23.318;2023-02-03T04:57:07;94826.50;;;1.95;94.99
6150;BME280;3106;42.670;23.318;2023-02-03T04:59:33;94794.25;;;1.79;94.72
6150;BME280;3106;42.670;23.318;2023-02-03T05:02:01;94786.44;;;1.69;94.67
6150;BME280;3106;42.670;23.318;2023-02-03T05:04:27;94835.97;;;2.01;95.15
6150;BME280;3106;42.670;23.318;2023-02-03T05:06:54;94832.06;;;1.93;94.93
6150;BME280;3106;42.670;23.318;2023-02-03T05:09:21;94843.31;;;2.04;94.68
6150;BME280;3106;42.670;23.318;2023-02-03T05:11:48;94833.84;;;2.03;94.00
6150;BME280;3106;42.670;23.318;2023-02-03T05:14:16;94838.44;;;2.16;94.38
6150;BME280;3106;42.670;23.318;2023-02-03T05:16:43;94852.75;;;2.10;93.45
6150;BME280;3106;42.670;23.318;2023-02-03T05:19:13;94845.91;;;2.09;93.95
6150;BME280;3106;42.670;23.318;2023-02-03T05:21:40;94832.84;;;1.94;94.62
6150;BME280;3106;42.670;23.318;2023-02-03T05:24:07;94853.13;;;1.98;94.01
6150;BME280;3106;42.670;23.318;2023-02-03T05:26:34;94860.41;;;2.06;94.90
6150;BME280;3106;42.670;23.318;2023-02-03T05:29:01;94846.72;;;2.04;94.07
6150;BME280;3106;42.670;23.318;2023-02-03T05:31:29;94858.06;;;2.05;94.43
6150;BME280;3106;42.670;23.318;2023-02-03T05:33:57;94857.56;;;2.03;94.29
6150;BME280;3106;42.670;23.318;2023-02-03T05:36:24;94852.66;;;1.91;94.83
6150;BME280;3106;42.670;23.318;2023-02-03T05:38:51;94855.34;;;1.86;95.32
6150;BME280;3106;42.670;23.318;2023-02-03T05:41:18;94820.97;;;1.68;94.81
6150;BME280;3106;42.670;23.318;2023-02-03T05:44:10;94830.72;;;1.67;95.08
6150;BME280;3106;42.670;23.318;2023-02-03T05:46:38;94794.34;;;1.41;95.06
6150;BME280;3106;42.670;23.318;2023-02-03T05:49:05;94861.69;;;1.80;94.94
6150;BME280;3106;42.670;23.318;2023-02-03T05:51:33;94862.75;;;1.79;95.68
6150;BME280;3106;42.670;23.318;2023-02-03T05:54:11;94847.84;;;1.70;95.80
6150;BME280;3106;42.670;23.318;2023-02-03T05:56:50;94870.44;;;1.76;95.71
6150;BME280;3106;42.670;23.318;2023-02-03T05:59:23;94875.97;;;1.74;96.18
6150;BME280;3106;42.670;23.318;2023-02-03T06:23:30;94886.59;;;1.98;93.83
6150;BME280;3106;42.670;23.318;2023-02-03T06:33:41;94904.81;;;2.23;91.74
6150;BME280;3106;42.670;23.318;2023-02-03T06:36:25;94907.66;;;2.31;90.83
6150;BME280;3106;42.670;23.318;2023-02-03T07:15:53;94919.41;;;3.32;83.16
6150;BME280;3106;42.670;23.318;2023-02-03T07:18:20;94924.81;;;3.22;82.31
6150;BME280;3106;42.670;23.318;2023-02-03T07:20:49;94923.81;;;3.18;82.92
6150;BME280;3106;42.670;23.318;2023-02-03T07:23:16;94910.31;;;3.20;82.59
6150;BME280;3106;42.670;23.318;2023-02-03T07:25:42;94920.53;;;3.26;82.28
6150;BME280;3106;42.670;23.318;2023-02-03T07:28:09;94922.69;;;3.24;81.80
6150;BME280;3106;42.670;23.318;2023-02-03T07:30:36;94924.81;;;3.22;81.17
6150;BME280;3106;42.670;23.318;2023-02-03T07:33:04;94926.59;;;3.27;82.45
6150;BME280;3106;42.670;23.318;2023-02-03T07:35:32;94920.78;;;3.30;82.75
6150;BME280;3106;42.670;23.318;2023-02-03T07:37:59;94927.25;;;3.37;82.10
6150;BME280;3106;42.670;23.318;2023-02-03T07:40:26;94927.25;;;3.37;81.44
6150;BME280;3106;42.670;23.318;2023-02-03T07:42:53;94946.81;;;3.36;81.24
6150;BME280;3106;42.670;23.318;2023-02-03T07:45:19;94942.91;;;3.34;80.79
6150;BME280;3106;42.670;23.318;2023-02-03T07:47:46;94945.25;;;3.35;81.26
6150;BME280;3106;42.670;23.318;2023-02-03T07:50:14;94950.63;;;3.30;82.03
6150;BME280;3106;42.670;23.318;2023-02-03T07:52:41;94951.91;;;3.33;81.81
6150;BME280;3106;42.670;23.318;2023-02-03T07:55:08;94946.00;;;3.41;81.49
6150;BME280;3106;42.670;23.318;2023-02-03T07:57:35;94940.84;;;3.49;81.24
6150;BME280;3106;42.670;23.318;2023-02-03T08:00:02;94943.19;;;3.51;80.25
6150;BME280;3106;42.670;23.318;2023-02-03T08:02:29;94939.84;;;3.45;80.23
6150;BME280;3106;42.670;23.318;2023-02-03T08:04:56;94952.94;;;3.55;80.05
6150;BME280;3106;42.670;23.318;2023-02-03T08:07:24;94942.94;;;3.52;81.03
6150;BME280;3106;42.670;23.318;2023-02-03T08:09:51;94939.22;;;3.53;80.81
6150;BME280;3106;42.670;23.318;2023-02-03T08:12:18;94937.34;;;3.54;80.70
6150;BME280;3106;42.670;23.318;2023-02-03T08:14:45;94941.44;;;3.65;80.41
6150;BME280;3106;42.670;23.318;2023-02-03T08:17:12;94948.50;;;3.69;81.30
6150;BME280;3106;42.670;23.318;2023-02-03T08:19:39;94951.38;;;3.73;80.58
6150;BME280;3106;42.670;23.318;2023-02-03T08:22:06;94963.09;;;3.85;80.01
6150;BME280;3106;42.670;23.318;2023-02-03T08:24:34;94961.94;;;3.91;79.99
6150;BME280;3106;42.670;23.318;2023-02-03T08:27:01;94955.81;;;4.09;79.04
6150;BME280;3106;42.670;23.318;2023-02-03T08:29:27;94967.53;;;4.22;78.53
6150;BME280;3106;42.670;23.318;2023-02-03T08:31:54;94962.97;;;4.27;77.81
6150;BME280;3106;42.670;23.318;2023-02-03T08:34:22;94966.28;;;4.33;75.69
6150;BME280;3106;42.670;23.318;2023-02-03T08:36:49;94974.19;;;4.38;75.28
6150;BME280;3106;42.670;23.318;2023-02-03T08:39:16;94985.75;;;4.55;74.93
6150;BME280;3106;42.670;23.318;2023-02-03T08:41:44;94980.00;;;4.66;74.26
6150;BME280;3106;42.670;23.318;2023-02-03T08:44:11;94978.97;;;4.81;73.82
6150;BME280;3106;42.670;23.318;2023-02-03T08:46:38;94966.78;;;4.66;73.10
6150;BME280;3106;42.670;23.318;2023-02-03T08:49:08;94995.13;;;4.66;74.08
6150;BME280;3106;42.670;23.318;2023-02-03T08:51:35;95000.91;;;4.68;74.19
6150;BME280;3106;42.670;23.318;2023-02-03T08:54:02;95002.59;;;4.64;74.01
6150;BME280;3106;42.670;23.318;2023-02-03T08:56:29;94999.41;;;4.48;74.96
6150;BME280;3106;42.670;23.318;2023-02-03T08:58:59;94997.38;;;4.59;75.96
6150;BME280;3106;42.670;23.318;2023-02-03T09:01:26;94992.81;;;4.46;75.98
6150;BME280;3106;42.670;23.318;2023-02-03T09:03:53;94987.31;;;4.43;77.14
6150;BME280;3106;42.670;23.318;2023-02-03T09:06:20;95000.84;;;4.41;75.98
6150;BME280;3106;42.670;23.318;2023-02-03T09:08:49;95005.88;;;4.24;77.42
6150;BME280;3106;42.670;23.318;2023-02-03T09:11:17;95004.16;;;4.33;78.41
6150;BME280;3106;42.670;23.318;2023-02-03T09:13:44;94973.59;;;4.41;77.07
6150;BME280;3106;42.670;23.318;2023-02-03T09:16:14;94974.50;;;4.49;76.15
6150;BME280;3106;42.670;23.318;2023-02-03T09:18:42;94983.13;;;4.55;76.60
6150;BME280;3106;42.670;23.318;2023-02-03T09:21:10;94991.56;;;4.25;76.96
6150;BME280;3106;42.670;23.318;2023-02-03T09:23:37;94979.41;;;4.24;78.50
6150;BME280;3106;42.670;23.318;2023-02-03T09:26:06;94959.50;;;4.27;77.99
6150;BME280;3106;42.670;23.318;2023-02-03T09:28:33;94984.91;;;4.28;79.79
6150;BME280;3106;42.670;23.318;2023-02-03T09:31:00;94989.16;;;4.42;77.29
6150;BME280;3106;42.670;23.318;2023-02-03T09:33:28;94981.47;;;4.27;77.36
6150;BME280;3106;42.670;23.318;2023-02-03T09:35:56;94975.63;;;4.12;76.43
6150;BME280;3106;42.670;23.318;2023-02-03T09:38:24;94978.56;;;4.10;76.70
6150;BME280;3106;42.670;23.318;2023-02-03T09:40:53;94984.00;;;4.19;76.84
6150;BME280;3106;42.670;23.318;2023-02-03T09:43:31;94978.16;;;4.03;75.61
6150;BME280;3106;42.670;23.318;2023-02-03T09:46:02;94976.56;;;4.02;76.40
6150;BME280;3106;42.670;23.318;2023-02-03T09:48:36;94974.66;;;3.89;76.20
6150;BME280;3106;42.670;23.318;2023-02-03T09:51:07;94974.84;;;3.93;74.00
6150;BME280;3106;42.670;23.318;2023-02-03T09:53:46;94977.00;;;4.09;72.63
6150;BME280;3106;42.670;23.318;2023-02-03T09:56:21;94973.47;;;4.32;71.94
6150;BME280;3106;42.670;23.318;2023-02-03T09:58:51;94963.94;;;4.31;72.20
6150;BME280;3106;42.670;23.318;2023-02-03T10:01:18;94965.38;;;4.55;72.63
6150;BME280;3106;42.670;23.318;2023-02-03T10:03:51;94967.59;;;4.80;71.17
6150;BME280;3106;42.670;23.318;2023-02-03T10:06:29;94958.75;;;4.85;69.99
6150;BME280;3106;42.670;23.318;2023-02-03T10:09:10;94958.75;;;4.85;68.45
6150;BME280;3106;42.670;23.318;2023-02-03T10:14:40;94955.59;;;4.69;67.92
6150;BME280;3106;42.670;23.318;2023-02-03T10:17:21;94946.31;;;4.40;69.47
6150;BME280;3106;42.670;23.318;2023-02-03T10:20:00;94957.81;;;4.17;71.29
6150;BME280;3106;42.670;23.318;2023-02-03T10:22:32;94972.78;;;4.08;72.28
6150;BME280;3106;42.670;23.318;2023-02-03T10:25:05;94927.06;;;3.89;73.54
6150;BME280;3106;42.670;23.318;2023-02-03T10:27:34;94961.53;;;4.16;73.70
6150;BME280;3106;42.670;23.318;2023-02-03T10:30:05;94957.53;;;4.19;72.82
6150;BME280;3106;42.670;23.318;2023-02-03T10:32:36;94952.50;;;4.17;71.95
6150;BME280;3106;42.670;23.318;2023-02-03T10:35:10;94955.22;;;4.31;70.96
6150;BME280;3106;42.670;23.318;2023-02-03T10:37:40;94945.97;;;4.46;67.71
6150;BME280;3106;42.670;23.318;2023-02-03T10:40:11;94971.63;;;4.46;66.79
6150;BME280;3106;42.670;23.318;2023-02-03T10:42:38;94955.06;;;4.54;66.93
6150;BME280;3106;42.670;23.318;2023-02-03T10:45:23;94960.22;;;4.64;67.06
6150;BME280;3106;42.670;23.318;2023-02-03T10:47:51;94954.50;;;4.70;68.10
6150;BME280;3106;42.670;23.318;2023-02-03T10:50:22;94960.53;;;4.89;67.15
6150;BME280;3106;42.670;23.318;2023-02-03T10:53:21;94960.81;;;4.61;65.67
6150;BME280;3106;42.670;23.318;2023-02-03T10:55:50;94934.19;;;4.52;66.72
6150;BME280;3106;42.670;23.318;2023-02-03T10:58:26;94931.78;;;4.56;64.76
6150;BME280;3106;42.670;23.318;2023-02-03T11:00:54;94962.25;;;4.53;61.59
6150;BME280;3106;42.670;23.318;2023-02-03T11:03:24;94947.53;;;4.47;59.68
6150;BME280;3106;42.670;23.318;2023-02-03T11:06:05;94946.84;;;4.55;59.97
6150;BME280;3106;42.670;23.318;2023-02-03T11:08:34;94950.22;;;4.29;61.15
6150;BME280;3106;42.670;23.318;2023-02-03T11:11:02;94953.28;;;4.36;61.13
6150;BME280;3106;42.670;23.318;2023-02-03T11:13:30;94951.78;;;4.62;60.10
6150;BME280;3106;42.670;23.318;2023-02-03T11:15:59;94949.31;;;4.65;60.06
6150;BME280;3106;42.670;23.318;2023-02-03T11:18:38;94939.91;;;4.73;59.88
6150;BME280;3106;42.670;23.318;2023-02-03T11:21:08;94934.41;;;4.69;59.70
6150;BME280;3106;42.670;23.318;2023-02-03T11:23:36;94931.09;;;4.64;59.80
6150;BME280;3106;42.670;23.318;2023-02-03T11:26:12;94923.22;;;4.72;58.40
6150;BME280;3106;42.670;23.318;2023-02-03T11:28:42;94926.00;;;4.94;59.30
6150;BME280;3106;42.670;23.318;2023-02-03T11:31:19;94924.81;;;4.87;56.64
6150;BME280;3106;42.670;23.318;2023-02-03T11:33:51;94930.50;;;5.34;55.44
6150;BME280;3106;42.670;23.318;2023-02-03T11:36:21;94915.09;;;5.85;53.96
6150;BME280;3106;42.670;23.318;2023-02-03T11:38:48;94912.00;;;6.35;52.78
6150;BME280;3106;42.670;23.318;2023-02-03T11:41:16;94908.25;;;6.58;51.23
6150;BME280;3106;42.670;23.318;2023-02-03T11:43:44;94909.25;;;6.40;51.39
6150;BME280;3106;42.670;23.318;2023-02-03T11:46:15;94911.63;;;6.50;50.83
6150;BME280;3106;42.670;23.318;2023-02-03T11:48:55;94918.44;;;6.65;49.90
6150;BME280;3106;42.670;23.318;2023-02-03T11:51:36;94914.19;;;6.33;51.05
6150;BME280;3106;42.670;23.318;2023-02-03T11:54:19;94914.97;;;6.34;49.28
6150;BME280;3106;42.670;23.318;2023-02-03T11:57:03;94916.84;;;5.90;48.56
6150;BME280;3106;42.670;23.318;2023-02-03T11:59:54;94902.00;;;5.89;48.95
6150;BME280;3106;42.670;23.318;2023-02-03T12:03:02;94902.63;;;6.07;47.55
6150;BME280;3106;42.670;23.318;2023-02-03T12:05:48;94907.38;;;6.19;47.41
6150;BME280;3106;42.670;23.318;2023-02-03T12:08:33;94895.19;;;5.96;45.43
6150;BME280;3106;42.670;23.318;2023-02-03T12:11:10;94900.19;;;5.97;45.68
6150;BME280;3106;42.670;23.318;2023-02-03T12:13:53;94906.75;;;5.78;47.79
6150;BME280;3106;42.670;23.318;2023-02-03T12:16:37;94868.31;;;4.91;47.25
6150;BME280;3106;42.670;23.318;2023-02-03T12:19:13;94903.34;;;4.75;48.89
6150;BME280;3106;42.670;23.318;2023-02-03T12:21:43;94898.50;;;4.50;49.42
6150;BME280;3106;42.670;23.318;2023-02-03T12:24:31;94911.63;;;4.55;49.19
6150;BME280;3106;42.670;23.318;2023-02-03T12:27:12;94894.78;;;4.38;49.21
6150;BME280;3106;42.670;23.318;2023-02-03T12:29:44;94909.19;;;4.45;49.52
6150;BME280;3106;42.670;23.318;2023-02-03T12:32:20;94913.13;;;4.47;50.13
6150;BME280;3106;42.670;23.318;2023-02-03T12:34:52;94909.06;;;4.37;49.97
6150;BME280;3106;42.670;23.318;2023-02-03T12:37:24;94883.47;;;4.32;50.93
6150;BME280;3106;42.670;23.318;2023-02-03T12:39:58;94901.28;;;4.27;51.04
6150;BME280;3106;42.670;23.318;2023-02-03T12:42:30;94897.66;;;4.23;52.01
6150;BME280;3106;42.670;23.318;2023-02-03T12:45:04;94886.38;;;4.17;52.49
6150;BME280;3106;42.670;23.318;2023-02-03T12:47:37;94893.31;;;4.13;53.79
6150;BME280;3106;42.670;23.318;2023-02-03T12:50:12;94888.03;;;4.13;54.72
6150;BME280;3106;42.670;23.318;2023-02-03T12:52:44;94889.63;;;4.28;54.53
6150;BME280;3106;42.670;23.318;2023-02-03T12:55:20;94880.44;;;4.25;53.91
6150;BME280;3106;42.670;23.318;2023-02-03T12:57:54;94872.22;;;4.40;53.48
6150;BME280;3106;42.670;23.318;2023-02-03T13:00:33;94868.13;;;4.47;53.60
6150;BME280;3106;42.670;23.318;2023-02-03T13:03:15;94857.81;;;4.46;54.19
6150;BME280;3106;42.670;23.318;2023-02-03T13:05:49;94865.00;;;4.59;54.82
6150;BME280;3106;42.670;23.318;2023-02-03T13:08:29;94865.38;;;4.79;55.36
6150;BME280;3106;42.670;23.318;2023-02-03T13:11:09;94845.56;;;4.90;55.33
6150;BME280;3106;42.670;23.318;2023-02-03T13:13:42;94865.84;;;5.08;55.17
6150;BME280;3106;42.670;23.318;2023-02-03T13:16:13;94839.91;;;5.19;55.44
6150;BME280;3106;42.670;23.318;2023-02-03T13:18:45;94858.19;;;5.20;55.12
6150;BME280;3106;42.670;23.318;2023-02-03T13:21:15;94863.88;;;5.14;55.27
6150;BME280;3106;42.670;23.318;2023-02-03T13:23:42;94868.91;;;4.88;56.38
6150;BME280;3106;42.670;23.318;2023-02-03T13:26:23;94862.25;;;4.64;57.81
6150;BME280;3106;42.670;23.318;2023-02-03T13:29:06;94866.75;;;4.77;57.47
6150;BME280;3106;42.670;23.318;2023-02-03T13:31:45;94858.63;;;4.60;58.99
6150;BME280;3106;42.670;23.318;2023-02-03T13:34:42;94864.66;;;4.47;59.57
6150;BME280;3106;42.670;23.318;2023-02-03T13:40:18;94848.03;;;4.60;59.33
6150;BME280;3106;42.670;23.318;2023-02-03T13:42:53;94849.69;;;4.69;59.43
6150;BME280;3106;42.670;23.318;2023-02-03T13:45:25;94845.56;;;4.50;60.13
6150;BME280;3106;42.670;23.318;2023-02-03T13:47:54;94848.97;;;4.24;60.01
6150;BME280;3106;42.670;23.318;2023-02-03T13:50:25;94837.31;;;3.93;60.93
6150;BME280;3106;42.670;23.318;2023-02-03T13:52:55;94844.03;;;4.04;62.14
6150;BME280;3106;42.670;23.318;2023-02-03T13:55:27;94868.78;;;3.94;63.45
6150;BME280;3106;42.670;23.318;2023-02-03T13:57:57;94853.94;;;3.80;64.14
6150;BME280;3106;42.670;23.318;2023-02-03T14:00:59;94856.97;;;3.73;65.04
6150;BME280;3106;42.670;23.318;2023-02-03T14:03:42;94850.75;;;3.64;66.15
6150;BME280;3106;42.670;23.318;2023-02-03T14:09:39;94849.94;;;3.50;67.15
6150;BME280;3106;42.670;23.318;2023-02-03T14:12:17;94850.03;;;3.59;67.97
6150;BME280;3106;42.670;23.318;2023-02-03T14:15:00;94851.69;;;3.55;67.35
6150;BME280;3106;42.670;23.318;2023-02-03T14:20:57;94854.13;;;3.51;67.32
6150;BME280;3106;42.670;23.318;2023-02-03T14:23:51;94855.13;;;3.55;66.50
6150;BME280;3106;42.670;23.318;2023-02-03T14:26:31;94849.34;;;3.53;66.39
6150;BME280;3106;42.670;23.318;2023-02-03T14:28:59;94852.00;;;3.53;67.65
6150;BME280;3106;42.670;23.318;2023-02-03T14:31:31;94846.63;;;3.58;66.71
6150;BME280;3106;42.670;23.318;2023-02-03T14:34:17;94853.00;;;3.57;66.15
6150;BME280;3106;42.670;23.318;2023-02-03T14:36:54;94850.97;;;3.68;66.38
6150;BME280;3106;42.670;23.318;2023-02-03T14:42:53;94852.38;;;3.79;63.39
6150;BME280;3106;42.670;23.318;2023-02-03T14:45:45;94853.78;;;3.90;60.97
6150;BME280;3106;42.670;23.318;2023-02-03T14:48:36;94851.56;;;4.10;59.54
6150;BME280;3106;42.670;23.318;2023-02-03T14:51:13;94848.84;;;4.15;58.00
6150;BME280;3106;42.670;23.318;2023-02-03T14:53:59;94851.75;;;4.00;57.06
6150;BME280;3106;42.670;23.318;2023-02-03T14:56:41;94843.41;;;3.93;58.11
6150;BME280;3106;42.670;23.318;2023-02-03T14:59:27;94825.84;;;3.84;58.02
6150;BME280;3106;42.670;23.318;2023-02-03T15:02:12;94823.88;;;3.76;58.97
6150;BME280;3106;42.670;23.318;2023-02-03T15:04:42;94820.25;;;3.72;59.74
6150;BME280;3106;42.670;23.318;2023-02-03T15:07:33;94820.88;;;3.64;60.12
6150;BME280;3106;42.670;23.318;2023-02-03T15:09:59;94806.97;;;3.58;60.10
6150;BME280;3106;42.670;23.318;2023-02-03T15:12:26;94811.78;;;3.56;60.93